Time;durP1;ratioP1;P1;durP2;ratioP2;P2;SDS_P1;SDS_P2;PMS_P1;PMS_P2;Temp;Humidity;BMP_temperature;BMP_pressure;BME280_temperature;BME280_humidity;BME280_pressure;Samples;Min_cycle;Max_cycle;Signal;HPM_P1;HPM_P2
2022/02/10 00:07:43;;;;;;;9.95;8.13;;;;;;;13.72;51.82;101792.72;5037824;27;98666;-76
2022/02/10 00:18:56;;;;;;;11.45;8.38;;;;;;;13.78;51.63;101795.19;5038147;27;98469;-76
2022/02/10 00:21:28;;;;;;;14.15;8.88;;;;;;;13.81;51.33;101784.44;5036153;27;96850;-76
2022/02/10 00:24:25;;;;;;;13.73;8.55;;;;;;;13.55;52.10;101795.91;5038944;27;97808;-76
2022/02/10 00:35:12;;;;;;;10.48;8.40;;;;;;;13.96;51.00;101792.78;5042794;27;96878;-74
2022/02/10 00:37:50;;;;;;;12.60;8.82;;;;;;;13.66;51.53;101784.94;5036657;27;101138;-73
2022/02/10 00:40:20;;;;;;;12.65;8.07;;;;;;;13.56;51.67;101784.38;5040365;27;99002;-74
2022/02/10 00:42:47;;;;;;;14.07;8.75;;;;;;;13.83;51.21;101787.94;5038635;27;96779;-74
2022/02/10 00:45:13;;;;;;;11.23;8.77;;;;;;;14.02;50.80;101781.09;5036803;27;99840;-75
2022/02/10 00:47:51;;;;;;;10.50;8.82;;;;;;;13.66;51.70;101777.81;5041636;27;99015;-75
2022/02/10 00:50:18;;;;;;;9.52;8.35;;;;;;;13.53;51.90;101772.03;5037539;27;99287;-75
2022/02/10 00:52:45;;;;;;;12.32;8.82;;;;;;;13.69;51.49;101776.88;5042775;27;97734;-76
2022/02/10 00:55:15;;;;;;;11.10;8.60;;;;;;;13.79;51.39;101776.50;5034121;27;96786;-75
2022/02/10 00:57:42;;;;;;;10.27;7.88;;;;;;;13.84;51.28;101776.38;5037808;27;98820;-75
2022/02/10 01:00:34;;;;;;;11.90;8.80;;;;;;;13.69;51.50;101777.75;5040289;27;97503;-75
2022/02/10 01:11:44;;;;;;;11.32;8.50;;;;;;;13.92;50.80;101772.53;5039511;27;97077;-76
2022/02/10 01:14:33;;;;;;;11.82;9.20;;;;;;;13.85;50.97;101773.66;5039698;27;96827;-75
2022/02/10 01:30:41;;;;;;;11.50;8.30;;;;;;;13.68;51.51;101764.50;5035042;27;97752;-75
2022/02/10 01:33:10;;;;;;;12.90;10.07;;;;;;;13.15;52.89;101761.72;5031995;27;99259;-74
2022/02/10 01:35:36;;;;;;;13.13;9.55;;;;;;;13.63;51.79;101755.81;5038699;27;96816;-75
2022/02/10 01:38:03;;;;;;;16.55;9.73;;;;;;;13.60;51.82;101753.25;5041556;27;96773;-76
2022/02/10 01:40:47;;;;;;;15.10;9.40;;;;;;;13.58;51.86;101742.72;5042782;27;98902;-74
2022/02/10 02:05:31;;;;;;;14.00;9.85;;;;;;;13.55;51.83;101734.81;5027788;27;98610;-75
2022/02/10 02:07:59;;;;;;;15.55;9.70;;;;;;;13.69;51.32;101731.72;5025889;27;97185;-75
2022/02/10 02:10:25;;;;;;;15.30;9.10;;;;;;;13.69;51.35;101726.41;5031647;27;98628;-77
2022/02/10 02:12:52;;;;;;;12.95;9.60;;;;;;;13.48;51.71;101731.50;5030698;27;99683;-75
2022/02/10 02:15:18;;;;;;;10.68;8.20;;;;;;;13.36;52.04;101728.38;5039137;27;97768;-74
2022/02/10 02:17:46;;;;;;;13.27;8.73;;;;;;;13.31;52.44;101728.50;5033832;27;97515;-75
2022/02/10 02:20:12;;;;;;;11.13;8.75;;;;;;;13.63;51.56;101731.94;5032584;27;97373;-74
2022/02/10 02:22:40;;;;;;;11.93;9.00;;;;;;;13.53;51.55;101726.03;5032825;27;99767;-76
2022/02/10 02:25:07;;;;;;;10.35;8.45;;;;;;;13.70;51.35;101718.41;5032132;27;99091;-76
2022/02/10 02:27:43;;;;;;;12.18;8.07;;;;;;;13.77;50.99;101711.97;5033474;27;96976;-77
2022/02/10 02:30:20;;;;;;;10.55;7.53;;;;;;;13.27;52.31;101718.03;5034029;27;97328;-75
2022/02/10 02:33:05;;;;;;;8.85;7.47;;;;;;;13.34;52.02;101724.88;5034405;27;99177;-76
2022/02/10 02:35:41;;;;;;;11.65;7.32;;;;;;;13.52;51.63;101722.50;5037789;27;99000;-75
2022/02/10 02:38:34;;;;;;;10.35;7.35;;;;;;;13.59;51.34;101707.25;5053883;27;96944;-75
2022/02/10 03:05:43;;;;;;;9.73;6.80;;;;;;;13.66;51.23;101687.53;5034021;27;97165;-75
2022/02/10 03:08:14;;;;;;;9.05;6.55;;;;;;;13.75;50.70;101678.41;5031901;27;99800;-75
2022/02/10 03:10:59;;;;;;;11.40;7.13;;;;;;;13.36;51.88;101681.44;5029670;27;97065;-74
2022/02/10 03:13:30;;;;;;;11.43;7.22;;;;;;;13.76;50.82;101678.34;5030534;27;97367;-76
2022/02/10 03:16:12;;;;;;;10.13;7.35;;;;;;;13.74;50.88;101676.66;5031685;27;99041;-73
2022/02/10 03:18:44;;;;;;;9.15;6.80;;;;;;;13.54;51.07;101672.00;5031262;27;98238;-74
2022/02/10 03:21:30;;;;;;;10.30;7.47;;;;;;;13.75;50.93;101665.13;5030479;27;96794;-75
2022/02/10 04:02:56;;;;;;;10.43;7.15;;;;;;;13.40;51.47;101607.88;5022877;27;97503;-76
2022/02/10 04:06:05;;;;;;;10.45;7.43;;;;;;;13.55;50.89;101607.38;5030407;27;96712;-74
2022/02/10 04:08:54;;;;;;;10.85;7.07;;;;;;;13.68;50.65;101598.06;5031765;27;97968;-75
2022/02/10 04:11:47;;;;;;;11.20;7.47;;;;;;;13.68;50.61;101591.88;5033784;27;97130;-74
2022/02/10 04:14:21;;;;;;;8.27;6.90;;;;;;;13.70;50.43;101596.22;5038138;27;99629;-75
2022/02/10 04:17:02;;;;;;;9.23;7.22;;;;;;;13.62;50.47;101590.31;5040503;27;97349;-74
2022/02/10 04:19:49;;;;;;;9.15;6.70;;;;;;;13.63;50.49;101584.06;5035120;27;97041;-74
2022/02/10 04:22:23;;;;;;;10.32;6.65;;;;;;;13.51;50.91;101589.81;5035613;27;99013;-74
2022/02/10 04:25:13;;;;;;;14.55;7.35;;;;;;;13.62;50.57;101587.66;5044026;27;99195;-74
2022/02/10 04:28:01;;;;;;;8.45;6.75;;;;;;;13.73;49.91;101582.81;5038941;27;96710;-73
2022/02/10 04:30:49;;;;;;;11.20;6.95;;;;;;;13.78;50.17;101586.19;5041016;28;97130;-74
2022/02/10 04:39:24;;;;;;;10.07;6.72;;;;;;;13.53;50.28;101580.00;5036864;28;96940;-74
2022/02/10 04:56:11;;;;;;;11.70;6.38;;;;;;;13.78;49.78;101567.59;5057870;27;97107;-74
2022/02/10 04:58:52;;;;;;;9.43;6.50;;;;;;;13.67;49.81;101560.91;5066702;27;96984;-75
2022/02/10 05:01:34;;;;;;;9.00;6.00;;;;;;;13.64;50.10;101553.94;5060136;27;96917;-75
2022/02/10 05:04:28;;;;;;;8.32;6.28;;;;;;;13.68;50.12;101552.91;5056141;27;99058;-75
2022/02/10 05:07:40;;;;;;;8.68;5.82;;;;;;;13.69;49.99;101552.00;5063433;27;99556;-75
2022/02/10 05:13:53;;;;;;;8.15;5.75;;;;;;;13.86;49.72;101538.94;5062661;27;96768;-75
2022/02/10 05:16:18;;;;;;;9.85;6.45;;;;;;;13.74;49.76;101544.72;5056707;27;97519;-76
2022/02/10 05:19:14;;;;;;;7.30;5.72;;;;;;;13.84;49.52;101537.28;5056458;27;98903;-75
2022/02/10 05:22:09;;;;;;;8.98;6.07;;;;;;;13.91;49.20;101536.16;5058833;27;96982;-75
2022/02/10 05:31:18;;;;;;;8.43;5.65;;;;;;;14.12;48.73;101522.03;5064269;27;96895;-76
2022/02/10 05:33:19;;;;;;;7.70;5.90;;;;;;;13.74;49.71;101526.13;5055772;27;96857;-75
2022/02/10 05:35:48;;;;;;;8.50;6.22;;;;;;;13.53;50.41;101537.50;5055812;27;97577;-75
2022/02/10 05:38:21;;;;;;;9.85;6.10;;;;;;;13.66;50.16;101533.50;5060665;27;99024;-74
2022/02/10 05:41:31;;;;;;;7.93;5.25;;;;;;;13.57;50.20;101534.72;5056908;27;98858;-74
2022/02/10 05:43:53;;;;;;;7.57;5.63;;;;;;;13.63;50.09;101530.09;5056689;27;96879;-75
2022/02/10 05:46:41;;;;;;;7.22;5.28;;;;;;;13.55;49.91;101530.34;5057086;27;98698;-74
2022/02/10 05:52:27;;;;;;;6.57;5.28;;;;;;;13.42;50.03;101529.06;5058831;27;97430;-75
2022/02/10 05:54:59;;;;;;;8.27;5.60;;;;;;;13.65;49.42;101517.63;5056134;27;97474;-74
2022/02/10 05:57:45;;;;;;;10.38;5.53;;;;;;;13.66;49.26;101520.22;5050774;27;96820;-74
2022/02/10 06:38:13;;;;;;;10.70;5.43;;;;;;;13.40;49.72;101512.31;5044778;27;97249;-75
2022/02/10 06:50:52;;;;;;;9.55;5.50;;;;;;;13.14;50.19;101473.41;5015005;28;97116;-74
2022/02/10 06:53:27;;;;;;;8.95;5.40;;;;;;;13.40;49.43;101472.47;5011459;28;98051;-75
2022/02/10 06:56:27;;;;;;;9.20;6.20;;;;;;;13.17;50.06;101475.97;5031361;27;99509;-75
2022/02/10 07:07:28;;;;;;;10.38;5.80;;;;;;;13.56;48.80;101439.16;5020508;27;98810;-76
2022/02/10 07:16:14;;;;;;;11.73;6.18;;;;;;;13.48;49.23;101444.75;5050464;27;96881;-75
2022/02/10 07:47:03;;;;;;;14.23;7.80;;;;;;;13.56;49.14;101424.09;5047517;27;96887;-75
2022/02/10 07:49:42;;;;;;;15.35;7.40;;;;;;;13.23;49.59;101413.84;5043127;27;98786;-75
2022/02/10 07:55:16;;;;;;;12.48;7.82;;;;;;;13.43;49.37;101421.94;5027479;27;98011;-74
2022/02/10 07:57:49;;;;;;;20.42;7.10;;;;;;;13.69;48.66;101413.00;5046116;27;98009;-75
2022/02/10 08:00:51;;;;;;;16.63;8.10;;;;;;;13.63;48.88;101411.47;5046931;27;96867;-74
2022/02/10 08:50:06;;;;;;;25.15;13.98;;;;;;;14.81;46.46;101354.44;5047501;27;97124;-77
2022/02/10 08:55:34;;;;;;;13.00;6.93;;;;;;;15.12;45.68;101366.31;5045448;27;96877;-77
2022/02/10 09:03:52;;;;;;;8.90;6.53;;;;;;;14.81;46.56;101359.75;5051329;27;97085;-77
2022/02/10 09:06:27;;;;;;;11.35;6.32;;;;;;;14.88;46.50;101350.56;5059995;27;96659;-78
2022/02/10 09:15:30;;;;;;;10.82;7.00;;;;;;;14.44;47.90;101348.00;5059925;27;97254;-76
2022/02/10 09:18:28;;;;;;;11.07;6.32;;;;;;;14.43;48.40;101342.75;5052453;27;97080;-76
2022/02/10 09:21:26;;;;;;;12.45;6.63;;;;;;;14.57;47.70;101335.06;5048558;27;99383;-76
2022/02/10 09:52:44;;;;;;;10.82;7.07;;;;;;;14.65;48.48;101319.63;5048973;27;97184;-76
2022/02/10 09:55:21;;;;;;;12.48;6.65;;;;;;;14.86;48.17;101321.34;5049930;27;98594;-76
2022/02/10 10:00:48;;;;;;;11.85;6.82;;;;;;;14.48;49.19;101309.72;5035060;27;96856;-76
2022/02/10 10:03:20;;;;;;;15.65;8.55;;;;;;;14.66;48.64;101305.41;5046614;27;96775;-76
2022/02/10 10:05:57;;;;;;;12.50;7.30;;;;;;;15.21;47.74;101297.63;5040717;27;98906;-77
2022/02/10 10:08:37;;;;;;;14.13;6.80;;;;;;;15.33;47.25;101297.06;5044348;27;97860;-78
2022/02/10 10:14:13;;;;;;;16.85;6.93;;;;;;;15.06;47.63;101296.53;4998776;27;97511;-78
2022/02/10 10:16:56;;;;;;;12.57;6.78;;;;;;;15.30;47.23;101290.06;5048566;27;101462;-78
2022/02/10 10:19:44;;;;;;;15.82;7.60;;;;;;;15.58;46.65;101288.81;5050622;27;100347;-78
2022/02/10 10:22:24;;;;;;;13.90;5.97;;;;;;;15.65;46.24;101285.78;5049394;27;96872;-78
2022/02/10 10:25:14;;;;;;;15.60;6.95;;;;;;;15.39;46.82;101280.78;5047755;27;96839;-79
2022/02/10 10:50:58;;;;;;;11.07;6.60;;;;;;;14.95;47.44;101269.53;5058398;27;97711;-76
2022/02/10 10:53:32;;;;;;;12.63;6.35;;;;;;;15.20;47.56;101271.94;5071034;27;97789;-76
2022/02/10 10:56:06;;;;;;;13.35;6.70;;;;;;;15.31;46.89;101265.16;5048067;27;96855;-77
2022/02/10 10:58:38;;;;;;;12.45;6.40;;;;;;;15.28;47.01;101259.13;5045842;27;97220;-76
2022/02/10 11:38:14;;;;;;;12.40;6.20;;;;;;;15.83;44.87;101225.41;5049167;27;96787;-77
2022/02/10 11:41:26;;;;;;;12.07;6.82;;;;;;;16.34;43.73;101206.75;5048420;27;97561;-79
2022/02/10 11:44:25;;;;;;;9.80;6.03;;;;;;;15.86;44.71;101219.94;5044256;27;96900;-79
2022/02/10 12:44:14;;;;;;;16.40;8.38;;;;;;;14.29;48.46;101194.44;5042151;27;98926;-76
2022/02/10 14:13:11;;;;;;;0.75;0.65;;;;;;;9.70;63.76;101315.66;4952785;28;96929;-77
2022/02/10 14:15:58;;;;;;;2.70;0.80;;;;;;;10.26;62.65;101308.16;4952992;28;96946;-76
2022/02/10 14:18:28;;;;;;;0.95;0.50;;;;;;;10.30;61.41;101315.13;4951046;28;98912;-77
2022/02/10 14:21:02;;;;;;;2.20;0.50;;;;;;;10.14;62.01;101313.72;4954932;28;99469;-76
2022/02/10 14:26:30;;;;;;;2.60;0.88;;;;;;;10.50;60.68;101320.75;4954203;28;97175;-77
2022/02/10 14:28:56;;;;;;;5.07;0.80;;;;;;;9.76;63.20;101319.94;4953207;28;97690;-76
2022/02/10 14:31:23;;;;;;;2.92;1.00;;;;;;;9.99;62.13;101322.88;4952951;28;98856;-76
2022/02/10 14:33:52;;;;;;;2.70;1.30;;;;;;;10.26;60.78;101324.03;4961238;28;97077;-78
2022/02/10 14:36:24;;;;;;;1.73;0.50;;;;;;;9.83;60.96;101324.16;4953084;28;96815;-76
2022/02/10 14:38:58;;;;;;;1.83;0.60;;;;;;;9.86;61.29;101324.94;4956053;28;99122;-75
2022/02/10 15:12:59;;;;;;;3.30;0.60;;;;;;;11.94;53.43;101344.84;4937918;28;96740;-77
2022/02/10 15:18:34;;;;;;;2.75;1.30;;;;;;;11.33;54.25;101356.38;4934629;28;97715;-75
2022/02/10 15:33:13;;;;;;;1.73;0.60;;;;;;;12.04;52.47;101358.66;4937340;28;97951;-80
2022/02/10 15:46:50;;;;;;;1.92;1.10;;;;;;;11.73;54.64;101354.28;4930584;28;97266;-79
2022/02/10 15:52:18;;;;;;;3.28;1.08;;;;;;;11.74;53.11;101361.34;4936661;28;96807;-80
2022/02/10 15:54:58;;;;;;;4.95;1.00;;;;;;;11.97;52.87;101357.97;4939694;28;97919;-80
2022/02/10 16:11:37;;;;;;;3.28;1.77;;;;;;;11.54;54.87;101390.16;4933073;28;97042;-77
2022/02/10 16:17:05;;;;;;;6.35;2.33;;;;;;;11.75;54.19;101386.03;4879214;28;98401;-77
2022/02/10 16:19:32;;;;;;;5.45;2.17;;;;;;;11.31;54.59;101398.75;4915583;28;98298;-77
2022/02/10 16:22:03;;;;;;;6.15;2.53;;;;;;;11.08;55.61;101401.16;4936588;28;98263;-77
2022/02/10 16:24:31;;;;;;;3.88;1.65;;;;;;;11.30;55.57;101404.94;4938514;28;97282;-78
2022/02/10 16:27:01;;;;;;;4.72;1.42;;;;;;;11.47;55.21;101409.78;4935601;28;96882;-78
2022/02/10 16:29:30;;;;;;;4.18;2.10;;;;;;;11.13;55.34;101399.25;4936560;28;99235;-78
2022/02/10 16:31:57;;;;;;;6.15;1.80;;;;;;;11.28;55.86;101398.84;4937109;28;98877;-78
2022/02/10 16:34:24;;;;;;;4.55;1.58;;;;;;;11.59;55.42;101389.09;4936615;28;98703;-78
2022/02/10 16:36:53;;;;;;;1.67;1.17;;;;;;;11.50;55.62;101394.66;4934127;28;97126;-77
2022/02/10 16:39:19;;;;;;;1.80;0.75;;;;;;;11.41;55.05;101391.44;4933621;28;99585;-76
2022/02/10 16:41:46;;;;;;;1.63;0.98;;;;;;;11.45;55.05;101386.00;4936480;28;99216;-78
2022/02/10 16:44:13;;;;;;;2.38;1.13;;;;;;;11.03;56.04;101390.69;4932190;28;96813;-77
2022/02/10 16:46:41;;;;;;;6.43;1.00;;;;;;;11.40;55.60;101400.28;4931498;28;97246;-78
2022/02/10 16:49:07;;;;;;;2.38;1.15;;;;;;;11.53;55.24;101396.34;4939571;28;99053;-76
2022/02/10 16:51:35;;;;;;;1.42;0.88;;;;;;;11.27;56.17;101401.53;4933950;28;99093;-77
2022/02/10 16:54:07;;;;;;;3.15;1.00;;;;;;;11.13;56.58;101404.53;4940495;28;96905;-75
2022/02/10 16:56:44;;;;;;;3.40;1.10;;;;;;;11.23;56.74;101402.50;4939191;28;97476;-78
2022/02/10 16:59:25;;;;;;;1.92;1.08;;;;;;;11.15;56.83;101393.03;4933199;28;97168;-75
2022/02/10 17:02:13;;;;;;;2.97;1.10;;;;;;;11.31;56.40;101403.16;4933633;28;98750;-78
2022/02/10 17:18:51;;;;;;;3.15;1.30;;;;;;;11.36;56.55;101428.56;4936170;28;96812;-78
2022/02/10 17:21:33;;;;;;;2.08;1.08;;;;;;;11.37;56.52;101432.09;4942016;28;99330;-76
2022/02/10 17:26:59;;;;;;;2.50;1.20;;;;;;;11.39;56.10;101430.28;4930064;28;98429;-78
2022/02/10 17:29:36;;;;;;;2.60;1.15;;;;;;;11.45;56.17;101444.22;4932585;28;96779;-79
2022/02/10 17:32:12;;;;;;;2.80;1.90;;;;;;;11.39;56.63;101441.75;4937147;28;101875;-78
2022/02/10 17:35:04;;;;;;;2.80;1.98;;;;;;;10.96;58.13;101449.09;4935737;28;101271;-78
2022/02/10 17:41:27;;;;;;;3.72;1.73;;;;;;;11.02;58.10;101446.28;4938980;28;96868;-78
2022/02/10 17:46:06;;;;;;;2.00;1.80;;;;;;;11.23;57.39;101464.22;4933595;28;98763;-78
2022/02/10 17:51:43;;;;;;;3.75;2.63;;;;;;;11.15;57.29;101455.66;4936406;28;97295;-78
2022/02/10 17:54:11;;;;;;;4.75;2.47;;;;;;;11.33;57.04;101460.44;4934530;28;98891;-79
2022/02/10 17:56:38;;;;;;;4.07;2.70;;;;;;;10.40;60.14;101459.28;4937601;28;97923;-78
2022/02/10 17:59:05;;;;;;;4.30;2.65;;;;;;;10.55;59.92;101477.44;4932520;28;96897;-80
2022/02/10 18:01:33;;;;;;;4.22;2.80;;;;;;;11.02;58.82;101470.09;4937856;28;97237;-78
2022/02/10 18:03:59;;;;;;;3.63;2.60;;;;;;;11.02;58.20;101483.31;4931994;28;99362;-76
2022/02/10 18:06:29;;;;;;;5.30;3.20;;;;;;;11.19;58.04;101475.81;4925961;28;98825;-80
2022/02/10 18:09:18;;;;;;;8.00;2.85;;;;;;;11.10;57.83;101468.09;4931311;28;97671;-78
2022/02/10 18:14:37;;;;;;;5.65;2.80;;;;;;;11.24;57.42;101471.25;4902341;28;97606;-80
2022/02/10 18:17:11;;;;;;;6.10;2.85;;;;;;;11.32;57.19;101466.63;4946956;28;99167;-78
2022/02/10 18:19:43;;;;;;;7.22;2.65;;;;;;;11.35;56.72;101465.69;4939568;28;97807;-78
2022/02/10 18:22:36;;;;;;;6.00;3.00;;;;;;;11.23;56.87;101472.16;4935953;28;97039;-78
2022/02/10 18:27:58;;;;;;;6.10;2.88;;;;;;;10.65;59.07;101476.28;4937663;28;97903;-79
2022/02/10 18:30:37;;;;;;;7.13;3.03;;;;;;;11.04;58.03;101473.53;4940409;28;96796;-79
2022/02/10 18:33:29;;;;;;;6.15;2.67;;;;;;;11.06;57.98;101472.63;4933571;28;97668;-80
2022/02/10 19:09:21;;;;;;;4.38;2.60;;;;;;;11.15;56.08;101490.03;4934185;28;97351;-81
2022/02/10 19:11:57;;;;;;;4.88;2.78;;;;;;;11.19;56.21;101486.38;4935143;28;102708;-79
2022/02/10 19:14:24;;;;;;;5.28;2.65;;;;;;;11.25;55.77;101482.69;4936612;28;97734;-81
2022/02/10 19:16:50;;;;;;;5.05;2.55;;;;;;;10.79;57.26;101484.75;4936771;28;96794;-80
2022/02/10 19:19:17;;;;;;;5.60;2.00;;;;;;;11.02;56.44;101483.31;4944607;28;99087;-82
2022/02/10 19:21:43;;;;;;;5.45;2.60;;;;;;;11.00;56.15;101483.34;4934382;28;98045;-80
2022/02/10 19:24:10;;;;;;;5.15;2.40;;;;;;;10.84;56.61;101481.13;4943281;28;97169;-81
2022/02/10 19:26:38;;;;;;;3.75;2.63;;;;;;;10.78;56.56;101485.66;4944801;28;97126;-81
2022/02/10 19:29:10;;;;;;;8.35;3.30;;;;;;;11.00;55.64;101487.78;4937533;28;99820;-82
2022/02/10 19:31:38;;;;;;;5.03;2.75;;;;;;;10.89;56.32;101484.53;4935399;28;99323;-80
2022/02/10 19:34:05;;;;;;;5.25;3.22;;;;;;;11.21;55.47;101486.34;4940973;28;98805;-80
2022/02/10 19:36:33;;;;;;;4.95;2.53;;;;;;;11.12;55.42;101487.44;4941230;28;96813;-81
2022/02/10 19:38:59;;;;;;;5.30;2.53;;;;;;;10.95;55.88;101490.53;4934576;28;100011;-81
2022/02/10 19:41:32;;;;;;;4.30;2.83;;;;;;;11.13;55.40;101478.59;4946585;28;101336;-81
2022/02/10 19:44:00;;;;;;;10.20;2.95;;;;;;;11.12;55.18;101485.69;4941813;28;97082;-81
2022/02/10 19:46:28;;;;;;;4.50;2.45;;;;;;;11.23;54.77;101481.88;4946502;28;96968;-80
2022/02/10 19:48:56;;;;;;;4.45;2.47;;;;;;;11.35;54.27;101479.78;4950653;28;101285;-81
2022/02/10 19:51:23;;;;;;;7.03;3.05;;;;;;;10.82;55.84;101483.81;4948442;28;98587;-80
2022/02/10 19:53:54;;;;;;;4.75;2.85;;;;;;;11.00;55.44;101483.34;4946551;28;96770;-80
2022/02/10 19:56:20;;;;;;;4.53;3.13;;;;;;;10.98;55.54;101486.94;4947367;28;96922;-82
2022/02/10 19:58:47;;;;;;;6.85;3.03;;;;;;;11.07;55.14;101477.00;4955946;28;96692;-81
2022/02/10 20:01:13;;;;;;;6.00;3.03;;;;;;;10.92;55.95;101482.66;4947880;28;96840;-81
2022/02/10 20:03:41;;;;;;;4.32;3.15;;;;;;;11.08;55.99;101484.03;4940796;28;97428;-79
2022/02/10 20:06:08;;;;;;;6.68;3.33;;;;;;;11.38;54.96;101478.81;4946729;28;96910;-82
2022/02/10 20:08:35;;;;;;;5.43;3.42;;;;;;;11.39;54.76;101475.28;4936685;28;98911;-80
2022/02/10 20:11:05;;;;;;;7.20;3.90;;;;;;;11.46;54.82;101471.53;4935756;28;97053;-81
2022/02/10 20:13:33;;;;;;;8.32;4.05;;;;;;;11.26;55.51;101474.72;4941992;28;96774;-81
2022/02/10 20:16:06;;;;;;;6.15;3.88;;;;;;;10.77;57.02;101468.06;4931266;28;97004;-80
2022/02/10 20:18:33;;;;;;;6.47;4.07;;;;;;;11.33;56.03;101468.38;4934577;28;99583;-82
2022/02/10 20:21:01;;;;;;;6.78;4.78;;;;;;;11.36;55.72;101465.63;4932066;28;99209;-81
2022/02/10 20:23:30;;;;;;;9.07;4.72;;;;;;;11.40;55.72;101467.28;4931579;28;96983;-81
2022/02/10 20:25:57;;;;;;;8.70;5.07;;;;;;;11.38;55.83;101463.81;4926708;28;97407;-81
2022/02/10 20:28:24;;;;;;;12.98;6.00;;;;;;;10.98;57.18;101473.72;4928609;28;100245;-80
2022/02/10 20:30:51;;;;;;;7.78;5.10;;;;;;;11.00;57.42;101470.13;4931603;28;98995;-78
2022/02/10 20:33:21;;;;;;;10.35;4.88;;;;;;;11.15;56.86;101477.69;4932662;28;98445;-79
2022/02/10 20:35:50;;;;;;;11.00;6.28;;;;;;;11.15;56.80;101477.69;4930545;28;98257;-79
2022/02/10 20:38:19;;;;;;;9.73;5.50;;;;;;;10.87;57.89;101483.69;4929644;28;99341;-79
2022/02/10 20:40:53;;;;;;;10.20;5.65;;;;;;;11.10;57.32;101473.38;4931497;28;100542;-79
2022/02/10 20:43:20;;;;;;;12.57;6.00;;;;;;;11.00;57.61;101472.78;4933018;28;97425;-78
2022/02/10 20:45:53;;;;;;;12.75;6.30;;;;;;;11.05;57.63;101476.16;4934042;28;98258;-79
2022/02/10 20:48:21;;;;;;;11.25;6.38;;;;;;;10.89;57.97;101476.59;4931799;28;99389;-78
2022/02/10 20:50:51;;;;;;;12.77;6.60;;;;;;;11.13;57.24;101478.59;4930126;28;99551;-79
2022/02/10 20:53:19;;;;;;;10.13;6.45;;;;;;;11.03;57.43;101482.38;4932752;28;97321;-81
2022/02/10 20:55:45;;;;;;;10.13;6.30;;;;;;;11.17;56.96;101477.59;4939512;28;97091;-78
2022/02/10 20:58:12;;;;;;;14.93;7.15;;;;;;;11.25;56.90;101475.63;4935100;28;99061;-82
2022/02/10 21:00:38;;;;;;;12.73;7.13;;;;;;;11.21;56.60;101468.72;4928276;28;99115;-79
2022/02/10 21:03:05;;;;;;;12.75;6.65;;;;;;;11.07;57.26;101478.78;4937290;28;96755;-80
2022/02/10 21:05:36;;;;;;;17.13;7.50;;;;;;;11.00;57.67;101470.13;4925850;28;98950;-79
2022/02/10 21:08:10;;;;;;;13.18;7.32;;;;;;;10.74;58.21;101468.16;4926466;28;98890;-80
2022/02/10 21:10:40;;;;;;;12.27;7.55;;;;;;;11.04;57.60;101473.53;4931846;28;100919;-78
2022/02/10 21:13:08;;;;;;;16.10;7.18;;;;;;;11.07;57.64;101468.19;4935387;28;97618;-78
2022/02/10 21:15:41;;;;;;;14.25;7.22;;;;;;;11.01;57.18;101468.34;4933522;28;96832;-78
2022/02/10 21:18:09;;;;;;;11.75;7.47;;;;;;;10.65;58.22;101471.00;4929943;28;99353;-78
2022/02/10 21:20:37;;;;;;;13.43;6.97;;;;;;;10.62;57.90;101476.38;4939361;28;99143;-77
2022/02/10 21:23:17;;;;;;;13.25;7.43;;;;;;;10.62;58.27;101476.38;4933829;28;96714;-78
2022/02/10 21:25:46;;;;;;;15.45;7.40;;;;;;;10.85;57.51;101480.22;4933432;28;99083;-78
2022/02/10 21:28:19;;;;;;;16.30;7.53;;;;;;;10.83;57.29;101482.88;4930967;28;98931;-79
2022/02/10 21:30:49;;;;;;;12.18;6.82;;;;;;;10.82;57.50;101483.81;4932364;28;98090;-79
2022/02/10 21:33:22;;;;;;;13.93;7.90;;;;;;;10.25;58.51;101480.75;4926380;28;97219;-79
2022/02/10 21:38:34;;;;;;;12.15;7.72;;;;;;;11.04;56.54;101482.34;4929002;28;98841;-80
2022/02/10 21:54:55;;;;;;;11.13;6.53;;;;;;;10.86;56.61;101487.25;4959347;28;96786;-77
2022/02/10 21:57:36;;;;;;;12.38;6.53;;;;;;;10.76;56.78;101487.47;4951606;28;98995;-79
2022/02/10 22:00:37;;;;;;;13.77;7.07;;;;;;;10.13;58.49;101515.34;4949824;28;98705;-81
2022/02/10 22:03:37;;;;;;;7.95;2.75;;;;;;;9.07;58.98;101542.88;4936499;28;98865;-81
2022/02/10 22:06:20;;;;;;;10.35;2.47;;;;;;;8.21;61.47;101537.09;4938628;28;96868;-81
2022/02/10 22:09:17;;;;;;;8.68;2.13;;;;;;;7.86;62.82;101545.47;4936342;28;96737;-80
2022/02/10 22:12:01;;;;;;;8.70;2.30;;;;;;;7.08;65.44;101547.13;4935085;28;96836;-79
2022/02/10 22:17:37;;;;;;;9.50;2.03;;;;;;;6.93;66.01;101552.50;4939130;28;97158;-78
2022/02/10 22:20:09;;;;;;;8.60;1.35;;;;;;;6.89;65.47;101550.78;4938759;28;97013;-80
2022/02/10 22:22:38;;;;;;;7.75;1.90;;;;;;;7.38;64.98;101557.34;4938794;28;99348;-78
2022/02/10 22:25:11;;;;;;;12.52;2.13;;;;;;;7.95;63.62;101550.59;4933159;28;99343;-78
2022/02/10 22:27:42;;;;;;;5.13;1.42;;;;;;;8.08;62.35;101555.69;4933240;28;99306;-79
2022/02/10 22:30:20;;;;;;;6.88;1.77;;;;;;;8.54;60.32;101556.00;4935300;28;97430;-78
2022/02/10 22:32:53;;;;;;;6.47;1.85;;;;;;;8.96;59.48;101565.03;4938398;28;98929;-78
2022/02/10 22:35:20;;;;;;;6.22;1.20;;;;;;;8.16;61.88;101569.66;4932267;28;99209;-79
2022/02/10 22:37:48;;;;;;;4.40;1.58;;;;;;;8.73;59.83;101568.88;4930616;28;98236;-79
2022/02/10 22:40:37;;;;;;;7.80;1.13;;;;;;;8.97;58.66;101572.91;4937802;28;98157;-78
2022/02/10 22:43:04;;;;;;;6.82;2.65;;;;;;;9.08;58.43;101560.44;4933179;28;97741;-78
2022/02/10 22:45:32;;;;;;;5.15;1.85;;;;;;;9.52;57.65;101561.41;4935169;28;98791;-78
2022/02/10 22:47:58;;;;;;;6.25;1.90;;;;;;;9.54;55.91;101549.06;4931955;28;97216;-79
2022/02/10 22:50:24;;;;;;;6.90;1.55;;;;;;;9.59;56.16;101536.66;4935787;28;97078;-79
2022/02/10 22:52:51;;;;;;;7.22;1.02;;;;;;;9.75;55.28;101527.56;4935462;28;97638;-78
2022/02/10 22:55:17;;;;;;;3.72;0.82;;;;;;;9.56;55.53;101542.00;4935919;28;99144;-79
2022/02/10 22:57:43;;;;;;;3.10;0.98;;;;;;;9.86;55.25;101535.25;4943016;28;97334;-79
2022/02/10 23:00:12;;;;;;;4.82;1.10;;;;;;;9.72;56.02;101535.53;4947479;28;97254;-79
2022/02/10 23:02:40;;;;;;;5.07;1.30;;;;;;;9.83;55.71;101524.78;4939570;28;99089;-76
2022/02/10 23:05:07;;;;;;;5.30;1.40;;;;;;;9.97;55.60;101528.88;4948826;28;99136;-78
2022/02/10 23:07:33;;;;;;;7.03;1.15;;;;;;;9.86;55.56;101517.66;4935768;28;97345;-78
2022/02/10 23:10:31;;;;;;;8.52;1.30;;;;;;;10.05;54.81;101511.97;4946475;28;96835;-80
2022/02/10 23:12:51;;;;;;;6.90;1.40;;;;;;;9.92;55.18;101514.88;4940317;28;97845;-77
2022/02/10 23:15:17;;;;;;;7.57;1.10;;;;;;;9.78;55.42;101510.81;4935633;28;98801;-76
2022/02/10 23:17:45;;;;;;;4.28;1.20;;;;;;;9.72;56.53;101510.91;4935752;28;97560;-75
2022/02/10 23:20:12;;;;;;;6.38;1.05;;;;;;;9.82;55.66;101513.34;4935548;28;97908;-77
2022/02/10 23:22:39;;;;;;;3.70;1.15;;;;;;;10.02;55.45;101509.41;4939440;28;99355;-78
2022/02/10 23:25:06;;;;;;;9.57;1.45;;;;;;;9.74;55.26;101517.91;4944692;28;98085;-78
2022/02/10 23:27:32;;;;;;;7.03;1.98;;;;;;;9.78;55.41;101519.56;4946387;28;96877;-79
2022/02/10 23:29:59;;;;;;;3.90;1.23;;;;;;;9.91;54.95;101522.84;4952313;28;96844;-78
2022/02/10 23:32:25;;;;;;;7.13;0.95;;;;;;;9.85;55.39;101518.53;4947229;28;98188;-77
2022/02/10 23:34:53;;;;;;;8.35;1.73;;;;;;;9.99;54.79;101527.06;4951229;28;97752;-78
2022/02/10 23:37:19;;;;;;;4.60;1.00;;;;;;;9.65;54.97;101519.88;4955248;28;96612;-75
2022/02/10 23:39:46;;;;;;;;;;;;;;;9.91;55.51;101517.56;4959121;28;97204;-75
2022/02/10 23:42:16;;;;;;;4.60;0.90;;;;;;;9.80;55.04;101520.41;4952897;28;98207;-76
2022/02/10 23:44:46;;;;;;;5.20;1.00;;;;;;;9.61;55.70;101516.41;4939431;28;97951;-76
2022/02/10 23:47:18;;;;;;;5.07;1.10;;;;;;;9.65;55.09;101512.78;4941475;28;97123;-77
2022/02/10 23:49:44;;;;;;;4.78;1.00;;;;;;;8.94;55.93;101514.09;4942446;28;96928;-75
2022/02/10 23:52:15;;;;;;;3.35;1.02;;;;;;;9.48;55.76;101517.53;4943941;28;98973;-76
2022/02/10 23:54:43;;;;;;;3.80;1.10;;;;;;;9.56;55.82;101508.59;4940640;28;99003;-78
2022/02/10 23:57:14;;;;;;;7.30;1.20;;;;;;;9.46;55.89;101508.75;4940780;28;96824;-78
